sensor_id;sensor_type;location;lat;lon;timestamp;temperature;humidity
31046;DHT22;17711;54.018;9.300;2023-05-29T00:01:24;11.50;99.90
31046;DHT22;17711;54.018;9.300;2023-05-29T00:03:53;11.40;99.90
31046;DHT22;17711;54.018;9.300;2023-05-29T00:06:24;11.30;99.90
31046;DHT22;17711;54.018;9.300;2023-05-29T00:08:53;11.30;99.90
31046;DHT22;17711;54.018;9.300;2023-05-29T00:11:21;11.30;99.90
31046;DHT22;17711;54.018;9.300;2023-05-29T00:13:50;11.30;99.90
31046;DHT22;17711;54.018;9.300;2023-05-29T00:16:19;11.20;99.90
31046;DHT22;17711;54.018;9.300;2023-05-29T00:18:48;11.30;99.90
31046;DHT22;17711;54.018;9.300;2023-05-29T00:21:17;11.20;99.90
31046;DHT22;17711;54.018;9.300;2023-05-29T00:23:47;11.20;99.90
31046;DHT22;17711;54.018;9.300;2023-05-29T00:26:16;11.00;99.90
31046;DHT22;17711;54.018;9.300;2023-05-29T00:28:44;11.10;99.90
31046;DHT22;17711;54.018;9.300;2023-05-29T00:31:13;11.00;99.90
31046;DHT22;17711;54.018;9.300;2023-05-29T00:33:42;11.00;99.90
31046;DHT22;17711;54.018;9.300;2023-05-29T00:36:10;11.00;99.90
31046;DHT22;17711;54.018;9.300;2023-05-29T00:38:39;11.00;99.90
31046;DHT22;17711;54.018;9.300;2023-05-29T00:41:13;10.90;99.90
31046;DHT22;17711;54.018;9.300;2023-05-29T00:43:42;11.00;99.90
31046;DHT22;17711;54.018;9.300;2023-05-29T00:46:13;10.80;99.90
31046;DHT22;17711;54.018;9.300;2023-05-29T00:48:42;10.80;99.90
31046;DHT22;17711;54.018;9.300;2023-05-29T00:51:12;10.80;99.90
31046;DHT22;17711;54.018;9.300;2023-05-29T00:53:43;10.80;99.90
31046;DHT22;17711;54.018;9.300;2023-05-29T00:56:14;10.90;99.90
31046;DHT22;17711;54.018;9.300;2023-05-29T00:58:43;10.90;99.90
31046;DHT22;17711;54.018;9.300;2023-05-29T01:01:12;11.00;99.90
31046;DHT22;17711;54.018;9.300;2023-05-29T01:03:41;11.00;99.90
31046;DHT22;17711;54.018;9.300;2023-05-29T01:06:10;11.00;99.90
31046;DHT22;17711;54.018;9.300;2023-05-29T01:08:39;11.00;99.90
31046;DHT22;17711;54.018;9.300;2023-05-29T01:11:16;10.90;99.90
31046;DHT22;17711;54.018;9.300;2023-05-29T01:13:46;10.80;99.90
31046;DHT22;17711;54.018;9.300;2023-05-29T01:16:21;10.70;99.90
31046;DHT22;17711;54.018;9.300;2023-05-29T01:19:00;10.50;99.90
31046;DHT22;17711;54.018;9.300;2023-05-29T01:21:46;10.50;99.90
31046;DHT22;17711;54.018;9.300;2023-05-29T01:24:25;10.50;99.90
31046;DHT22;17711;54.018;9.300;2023-05-29T01:26:58;10.40;99.90
31046;DHT22;17711;54.018;9.300;2023-05-29T01:29:29;10.30;99.90
31046;DHT22;17711;54.018;9.300;2023-05-29T01:32:01;10.10;99.90
31046;DHT22;17711;54.018;9.300;2023-05-29T01:34:30;10.10;99.90
31046;DHT22;17711;54.018;9.300;2023-05-29T01:36:59;10.10;99.90
31046;DHT22;17711;54.018;9.300;2023-05-29T01:39:28;9.90;99.90
31046;DHT22;17711;54.018;9.300;2023-05-29T01:41:58;10.00;99.90
31046;DHT22;17711;54.018;9.300;2023-05-29T01:44:28;10.10;99.90
31046;DHT22;17711;54.018;9.300;2023-05-29T01:46:59;10.00;99.90
31046;DHT22;17711;54.018;9.300;2023-05-29T01:49:28;10.00;99.90
31046;DHT22;17711;54.018;9.300;2023-05-29T01:51:58;10.10;99.90
31046;DHT22;17711;54.018;9.300;2023-05-29T01:54:26;9.90;99.90
31046;DHT22;17711;54.018;9.300;2023-05-29T01:56:55;9.90;99.90
31046;DHT22;17711;54.018;9.300;2023-05-29T01:59:26;9.90;99.90
31046;DHT22;17711;54.018;9.300;2023-05-29T02:01:56;9.70;99.90
31046;DHT22;17711;54.018;9.300;2023-05-29T02:04:24;9.70;99.90
31046;DHT22;17711;54.018;9.300;2023-05-29T02:06:53;9.60;99.90
31046;DHT22;17711;54.018;9.300;2023-05-29T02:09:22;9.60;99.90
31046;DHT22;17711;54.018;9.300;2023-05-29T02:11:50;9.60;99.90
31046;DHT22;17711;54.018;9.300;2023-05-29T02:14:19;9.50;99.90
31046;DHT22;17711;54.018;9.300;2023-05-29T02:16:50;9.40;99.90
31046;DHT22;17711;54.018;9.300;2023-05-29T02:19:19;9.30;99.90
31046;DHT22;17711;54.018;9.300;2023-05-29T02:21:48;9.30;99.90
31046;DHT22;17711;54.018;9.300;2023-05-29T02:24:17;9.30;99.90
31046;DHT22;17711;54.018;9.300;2023-05-29T02:26:47;9.40;99.90
31046;DHT22;17711;54.018;9.300;2023-05-29T02:29:16;9.50;99.90
31046;DHT22;17711;54.018;9.300;2023-05-29T02:31:44;9.80;99.90
31046;DHT22;17711;54.018;9.300;2023-05-29T02:34:14;9.90;99.90
31046;DHT22;17711;54.018;9.300;2023-05-29T02:36:43;9.80;99.90
31046;DHT22;17711;54.018;9.300;2023-05-29T02:39:12;9.90;99.90
31046;DHT22;17711;54.018;9.300;2023-05-29T02:41:40;9.70;99.90
31046;DHT22;17711;54.018;9.300;2023-05-29T02:44:09;9.70;99.90
31046;DHT22;17711;54.018;9.300;2023-05-29T02:46:38;9.80;99.90
31046;DHT22;17711;54.018;9.300;2023-05-29T02:49:07;9.60;99.90
31046;DHT22;17711;54.018;9.300;2023-05-29T02:51:37;9.60;99.90
31046;DHT22;17711;54.018;9.300;2023-05-29T02:54:06;9.60;99.90
31046;DHT22;17711;54.018;9.300;2023-05-29T02:56:34;9.60;99.90
31046;DHT22;17711;54.018;9.300;2023-05-29T02:59:03;9.80;99.90
31046;DHT22;17711;54.018;9.300;2023-05-29T03:01:31;10.00;99.90
31046;DHT22;17711;54.018;9.300;2023-05-29T03:04:01;10.20;99.90
31046;DHT22;17711;54.018;9.300;2023-05-29T03:06:29;10.30;99.90
31046;DHT22;17711;54.018;9.300;2023-05-29T03:09:00;10.30;99.90
31046;DHT22;17711;54.018;9.300;2023-05-29T03:11:29;10.30;99.90
31046;DHT22;17711;54.018;9.300;2023-05-29T03:13:58;10.40;99.90
31046;DHT22;17711;54.018;9.300;2023-05-29T03:16:26;10.50;99.90
31046;DHT22;17711;54.018;9.300;2023-05-29T03:18:58;10.60;99.90
31046;DHT22;17711;54.018;9.300;2023-05-29T03:21:27;10.50;99.90
31046;DHT22;17711;54.018;9.300;2023-05-29T03:23:55;10.60;99.90
31046;DHT22;17711;54.018;9.300;2023-05-29T03:26:25;10.60;99.90
31046;DHT22;17711;54.018;9.300;2023-05-29T03:28:54;10.70;99.90
31046;DHT22;17711;54.018;9.300;2023-05-29T03:31:23;10.60;99.90
31046;DHT22;17711;54.018;9.300;2023-05-29T03:33:52;10.50;99.90
31046;DHT22;17711;54.018;9.300;2023-05-29T03:36:20;10.40;99.90
31046;DHT22;17711;54.018;9.300;2023-05-29T03:38:49;10.10;99.90
31046;DHT22;17711;54.018;9.300;2023-05-29T03:41:18;10.10;99.90
31046;DHT22;17711;54.018;9.300;2023-05-29T03:43:48;9.90;99.90
31046;DHT22;17711;54.018;9.300;2023-05-29T03:46:17;9.70;99.90
31046;DHT22;17711;54.018;9.300;2023-05-29T03:48:45;9.50;99.90
31046;DHT22;17711;54.018;9.300;2023-05-29T03:51:15;9.50;99.90
31046;DHT22;17711;54.018;9.300;2023-05-29T03:53:43;9.50;99.90
31046;DHT22;17711;54.018;9.300;2023-05-29T03:56:12;9.50;99.90
31046;DHT22;17711;54.018;9.300;2023-05-29T03:58:40;9.50;99.90
31046;DHT22;17711;54.018;9.300;2023-05-29T04:01:10;9.50;99.90
31046;DHT22;17711;54.018;9.300;2023-05-29T04:03:39;9.60;99.90
31046;DHT22;17711;54.018;9.300;2023-05-29T04:06:08;9.50;99.90
31046;DHT22;17711;54.018;9.300;2023-05-29T04:08:36;9.60;99.90
31046;DHT22;17711;54.018;9.300;2023-05-29T04:11:05;9.70;99.90
31046;DHT22;17711;54.018;9.300;2023-05-29T04:13:33;9.70;99.90
31046;DHT22;17711;54.018;9.300;2023-05-29T04:16:02;9.70;99.90
31046;DHT22;17711;54.018;9.300;2023-05-29T04:18:32;9.90;99.90
31046;DHT22;17711;54.018;9.300;2023-05-29T04:21:01;10.00;99.90
31046;DHT22;17711;54.018;9.300;2023-05-29T04:23:29;10.00;99.90
31046;DHT22;17711;54.018;9.300;2023-05-29T04:25:58;9.90;99.90
31046;DHT22;17711;54.018;9.300;2023-05-29T04:28:28;10.00;99.90
31046;DHT22;17711;54.018;9.300;2023-05-29T04:30:56;10.00;99.90
31046;DHT22;17711;54.018;9.300;2023-05-29T04:33:25;10.00;99.90
31046;DHT22;17711;54.018;9.300;2023-05-29T04:35:56;10.30;99.90
31046;DHT22;17711;54.018;9.300;2023-05-29T04:38:28;10.30;99.90
31046;DHT22;17711;54.018;9.300;2023-05-29T04:40:56;10.30;99.90
31046;DHT22;17711;54.018;9.300;2023-05-29T04:43:25;10.30;99.90
31046;DHT22;17711;54.018;9.300;2023-05-29T04:45:54;10.40;99.90
31046;DHT22;17711;54.018;9.300;2023-05-29T04:48:23;10.50;99.90
31046;DHT22;17711;54.018;9.300;2023-05-29T04:50:52;10.60;99.90
31046;DHT22;17711;54.018;9.300;2023-05-29T04:53:22;10.80;99.90
31046;DHT22;17711;54.018;9.300;2023-05-29T04:55:51;10.80;99.90
31046;DHT22;17711;54.018;9.300;2023-05-29T04:58:20;10.80;99.90
31046;DHT22;17711;54.018;9.300;2023-05-29T05:00:48;10.80;99.90
31046;DHT22;17711;54.018;9.300;2023-05-29T05:03:17;10.90;99.90
31046;DHT22;17711;54.018;9.300;2023-05-29T05:05:46;11.00;99.90
31046;DHT22;17711;54.018;9.300;2023-05-29T05:08:14;11.10;99.90
31046;DHT22;17711;54.018;9.300;2023-05-29T05:10:45;11.20;99.90
31046;DHT22;17711;54.018;9.300;2023-05-29T05:13:13;11.40;99.90
31046;DHT22;17711;54.018;9.300;2023-05-29T05:15:42;11.50;99.90
31046;DHT22;17711;54.018;9.300;2023-05-29T05:18:11;11.60;99.90
31046;DHT22;17711;54.018;9.300;2023-05-29T05:20:39;11.60;99.90
31046;DHT22;17711;54.018;9.300;2023-05-29T05:23:09;11.60;99.90
31046;DHT22;17711;54.018;9.300;2023-05-29T05:25:38;11.70;99.90
31046;DHT22;17711;54.018;9.300;2023-05-29T05:28:09;11.80;99.90
31046;DHT22;17711;54.018;9.300;2023-05-29T05:30:38;11.90;99.90
31046;DHT22;17711;54.018;9.300;2023-05-29T05:33:06;11.90;99.90
31046;DHT22;17711;54.018;9.300;2023-05-29T05:35:35;11.90;99.90
31046;DHT22;17711;54.018;9.300;2023-05-29T05:38:04;11.90;99.90
31046;DHT22;17711;54.018;9.300;2023-05-29T05:40:33;12.00;99.90
31046;DHT22;17711;54.018;9.300;2023-05-29T05:43:01;12.10;99.90
31046;DHT22;17711;54.018;9.300;2023-05-29T05:45:31;12.20;99.90
31046;DHT22;17711;54.018;9.300;2023-05-29T05:48:00;12.20;99.90
31046;DHT22;17711;54.018;9.300;2023-05-29T05:50:29;12.30;99.90
31046;DHT22;17711;54.018;9.300;2023-05-29T05:52:58;12.40;99.90
31046;DHT22;17711;54.018;9.300;2023-05-29T05:55:26;12.50;99.90
31046;DHT22;17711;54.018;9.300;2023-05-29T05:57:55;12.60;99.90
31046;DHT22;17711;54.018;9.300;2023-05-29T06:00:24;12.60;99.90
31046;DHT22;17711;54.018;9.300;2023-05-29T06:02:54;12.70;99.90
31046;DHT22;17711;54.018;9.300;2023-05-29T06:05:23;12.80;99.90
31046;DHT22;17711;54.018;9.300;2023-05-29T06:07:52;12.80;99.90
31046;DHT22;17711;54.018;9.300;2023-05-29T06:10:21;12.90;99.90
31046;DHT22;17711;54.018;9.300;2023-05-29T06:12:49;13.00;99.90
31046;DHT22;17711;54.018;9.300;2023-05-29T06:15:26;13.10;99.90
31046;DHT22;17711;54.018;9.300;2023-05-29T06:17:56;13.20;99.90
31046;DHT22;17711;54.018;9.300;2023-05-29T06:20:25;13.30;99.90
31046;DHT22;17711;54.018;9.300;2023-05-29T06:22:54;13.40;99.90
31046;DHT22;17711;54.018;9.300;2023-05-29T06:25:23;13.50;99.90
31046;DHT22;17711;54.018;9.300;2023-05-29T06:27:59;13.70;99.90
31046;DHT22;17711;54.018;9.300;2023-05-29T06:30:28;13.70;99.90
31046;DHT22;17711;54.018;9.300;2023-05-29T06:32:58;13.70;99.90
31046;DHT22;17711;54.018;9.300;2023-05-29T06:35:26;13.80;99.90
31046;DHT22;17711;54.018;9.300;2023-05-29T06:37:55;13.90;99.90
31046;DHT22;17711;54.018;9.300;2023-05-29T06:40:24;13.90;99.90
31046;DHT22;17711;54.018;9.300;2023-05-29T06:42:53;13.90;99.90
31046;DHT22;17711;54.018;9.300;2023-05-29T06:45:22;14.00;99.90
31046;DHT22;17711;54.018;9.300;2023-05-29T06:47:50;14.10;99.90
31046;DHT22;17711;54.018;9.300;2023-05-29T06:50:21;14.10;99.90
31046;DHT22;17711;54.018;9.300;2023-05-29T06:52:49;14.20;99.90
31046;DHT22;17711;54.018;9.300;2023-05-29T06:55:19;14.30;99.90
31046;DHT22;17711;54.018;9.300;2023-05-29T06:57:48;14.50;99.90
31046;DHT22;17711;54.018;9.300;2023-05-29T07:00:17;14.70;99.90
31046;DHT22;17711;54.018;9.300;2023-05-29T07:02:46;14.80;99.90
31046;DHT22;17711;54.018;9.300;2023-05-29T07:05:15;14.90;99.90
31046;DHT22;17711;54.018;9.300;2023-05-29T07:07:45;15.10;99.90
31046;DHT22;17711;54.018;9.300;2023-05-29T07:10:13;15.40;99.90
31046;DHT22;17711;54.018;9.300;2023-05-29T07:12:42;15.40;99.90
31046;DHT22;17711;54.018;9.300;2023-05-29T07:15:11;15.50;99.90
31046;DHT22;17711;54.018;9.300;2023-05-29T07:17:39;15.60;99.90
31046;DHT22;17711;54.018;9.300;2023-05-29T07:20:09;15.50;99.90
31046;DHT22;17711;54.018;9.300;2023-05-29T07:22:38;15.70;99.90
31046;DHT22;17711;54.018;9.300;2023-05-29T07:25:08;15.80;99.90
31046;DHT22;17711;54.018;9.300;2023-05-29T07:27:37;15.90;99.90
31046;DHT22;17711;54.018;9.300;2023-05-29T07:30:07;16.00;99.90
31046;DHT22;17711;54.018;9.300;2023-05-29T07:32:35;16.20;99.90
31046;DHT22;17711;54.018;9.300;2023-05-29T07:35:05;16.40;99.90
31046;DHT22;17711;54.018;9.300;2023-05-29T07:37:34;16.50;99.90
31046;DHT22;17711;54.018;9.300;2023-05-29T07:40:03;16.60;99.90
31046;DHT22;17711;54.018;9.300;2023-05-29T07:42:34;16.70;99.90
31046;DHT22;17711;54.018;9.300;2023-05-29T07:45:04;16.80;99.90
31046;DHT22;17711;54.018;9.300;2023-05-29T07:47:33;16.90;99.90
31046;DHT22;17711;54.018;9.300;2023-05-29T07:50:05;17.10;99.90
31046;DHT22;17711;54.018;9.300;2023-05-29T07:52:34;17.30;99.90
31046;DHT22;17711;54.018;9.300;2023-05-29T07:55:03;17.40;99.90
31046;DHT22;17711;54.018;9.300;2023-05-29T07:57:33;17.50;99.90
31046;DHT22;17711;54.018;9.300;2023-05-29T08:00:02;17.70;99.90
31046;DHT22;17711;54.018;9.300;2023-05-29T08:02:35;17.80;99.90
31046;DHT22;17711;54.018;9.300;2023-05-29T08:05:05;18.00;99.90
31046;DHT22;17711;54.018;9.300;2023-05-29T08:07:36;18.20;99.90
31046;DHT22;17711;54.018;9.300;2023-05-29T08:10:07;18.50;99.90
31046;DHT22;17711;54.018;9.300;2023-05-29T08:12:38;19.10;99.90
31046;DHT22;17711;54.018;9.300;2023-05-29T08:15:08;19.60;99.90
31046;DHT22;17711;54.018;9.300;2023-05-29T08:17:38;20.10;99.90
31046;DHT22;17711;54.018;9.300;2023-05-29T08:20:10;20.60;99.90
31046;DHT22;17711;54.018;9.300;2023-05-29T08:22:39;21.30;99.90
31046;DHT22;17711;54.018;9.300;2023-05-29T08:25:10;21.90;99.90
31046;DHT22;17711;54.018;9.300;2023-05-29T08:27:41;22.40;99.90
31046;DHT22;17711;54.018;9.300;2023-05-29T08:30:10;22.50;96.50
31046;DHT22;17711;54.018;9.300;2023-05-29T08:32:41;23.20;97.60
31046;DHT22;17711;54.018;9.300;2023-05-29T08:35:11;24.50;67.90
31046;DHT22;17711;54.018;9.300;2023-05-29T08:37:40;26.10;62.40
31046;DHT22;17711;54.018;9.300;2023-05-29T08:40:09;27.30;50.30
31046;DHT22;17711;54.018;9.300;2023-05-29T08:42:47;28.60;46.50
31046;DHT22;17711;54.018;9.300;2023-05-29T08:45:16;29.60;44.20
31046;DHT22;17711;54.018;9.300;2023-05-29T08:47:51;30.20;42.80
31046;DHT22;17711;54.018;9.300;2023-05-29T08:50:21;30.50;40.20
31046;DHT22;17711;54.018;9.300;2023-05-29T08:52:51;30.50;34.40
31046;DHT22;17711;54.018;9.300;2023-05-29T08:55:22;30.70;37.20
31046;DHT22;17711;54.018;9.300;2023-05-29T08:57:52;31.30;35.50
31046;DHT22;17711;54.018;9.300;2023-05-29T09:00:22;31.50;37.70
31046;DHT22;17711;54.018;9.300;2023-05-29T09:02:55;32.10;35.80
31046;DHT22;17711;54.018;9.300;2023-05-29T09:05:26;32.90;33.20
31046;DHT22;17711;54.018;9.300;2023-05-29T09:07:56;33.20;32.30
31046;DHT22;17711;54.018;9.300;2023-05-29T09:10:26;33.60;32.40
31046;DHT22;17711;54.018;9.300;2023-05-29T09:12:56;34.40;30.80
31046;DHT22;17711;54.018;9.300;2023-05-29T09:15:25;34.80;29.40
31046;DHT22;17711;54.018;9.300;2023-05-29T09:17:54;35.30;30.00
31046;DHT22;17711;54.018;9.300;2023-05-29T09:20:25;35.70;26.10
31046;DHT22;17711;54.018;9.300;2023-05-29T09:22:55;35.60;28.80
31046;DHT22;17711;54.018;9.300;2023-05-29T09:25:25;35.10;27.50
31046;DHT22;17711;54.018;9.300;2023-05-29T09:27:58;34.90;27.80
31046;DHT22;17711;54.018;9.300;2023-05-29T09:30:32;35.80;27.80
31046;DHT22;17711;54.018;9.300;2023-05-29T09:33:01;36.50;27.50
31046;DHT22;17711;54.018;9.300;2023-05-29T09:35:35;37.20;25.80
31046;DHT22;17711;54.018;9.300;2023-05-29T09:38:05;37.40;24.80
31046;DHT22;17711;54.018;9.300;2023-05-29T09:40:36;37.50;25.20
31046;DHT22;17711;54.018;9.300;2023-05-29T09:43:11;37.40;25.40
31046;DHT22;17711;54.018;9.300;2023-05-29T09:45:41;37.40;25.70
31046;DHT22;17711;54.018;9.300;2023-05-29T09:48:13;37.40;26.00
31046;DHT22;17711;54.018;9.300;2023-05-29T09:50:42;36.70;23.70
31046;DHT22;17711;54.018;9.300;2023-05-29T09:53:19;36.20;26.00
31046;DHT22;17711;54.018;9.300;2023-05-29T09:55:49;36.50;26.10
31046;DHT22;17711;54.018;9.300;2023-05-29T09:58:22;36.60;25.30
31046;DHT22;17711;54.018;9.300;2023-05-29T10:00:53;37.30;26.80
31046;DHT22;17711;54.018;9.300;2023-05-29T10:03:23;37.90;25.30
31046;DHT22;17711;54.018;9.300;2023-05-29T10:05:55;38.20;24.10
31046;DHT22;17711;54.018;9.300;2023-05-29T10:08:26;38.30;23.40
31046;DHT22;17711;54.018;9.300;2023-05-29T10:10:59;38.30;23.80
31046;DHT22;17711;54.018;9.300;2023-05-29T10:13:34;38.60;23.80
31046;DHT22;17711;54.018;9.300;2023-05-29T10:16:05;38.80;25.00
31046;DHT22;17711;54.018;9.300;2023-05-29T10:18:38;38.60;22.90
31046;DHT22;17711;54.018;9.300;2023-05-29T10:21:07;38.40;24.00
31046;DHT22;17711;54.018;9.300;2023-05-29T10:23:38;38.80;23.10
31046;DHT22;17711;54.018;9.300;2023-05-29T10:26:19;38.60;23.50
31046;DHT22;17711;54.018;9.300;2023-05-29T10:28:57;38.20;25.80
31046;DHT22;17711;54.018;9.300;2023-05-29T10:31:31;38.00;24.10
31046;DHT22;17711;54.018;9.300;2023-05-29T10:34:13;38.20;25.60
31046;DHT22;17711;54.018;9.300;2023-05-29T10:36:46;38.60;23.60
31046;DHT22;17711;54.018;9.300;2023-05-29T10:39:15;38.80;23.20
31046;DHT22;17711;54.018;9.300;2023-05-29T10:41:44;38.40;22.90
31046;DHT22;17711;54.018;9.300;2023-05-29T10:44:39;38.20;24.00
31046;DHT22;17711;54.018;9.300;2023-05-29T10:47:08;38.20;27.00
31046;DHT22;17711;54.018;9.300;2023-05-29T10:49:39;38.50;23.00
31046;DHT22;17711;54.018;9.300;2023-05-29T10:52:18;38.90;23.10
31046;DHT22;17711;54.018;9.300;2023-05-29T10:54:53;39.00;23.80
31046;DHT22;17711;54.018;9.300;2023-05-29T10:57:24;38.70;23.90
31046;DHT22;17711;54.018;9.300;2023-05-29T11:00:03;38.80;24.30
31046;DHT22;17711;54.018;9.300;2023-05-29T11:02:40;39.00;24.30
31046;DHT22;17711;54.018;9.300;2023-05-29T11:05:20;39.30;23.00
31046;DHT22;17711;54.018;9.300;2023-05-29T11:07:55;39.50;23.70
31046;DHT22;17711;54.018;9.300;2023-05-29T11:10:55;39.40;23.50
31046;DHT22;17711;54.018;9.300;2023-05-29T11:13:26;39.10;23.80
31046;DHT22;17711;54.018;9.300;2023-05-29T11:16:14;39.30;22.70
31046;DHT22;17711;54.018;9.300;2023-05-29T11:18:48;39.60;23.50
31046;DHT22;17711;54.018;9.300;2023-05-29T11:21:30;39.80;22.70
31046;DHT22;17711;54.018;9.300;2023-05-29T11:24:02;40.00;21.80
31046;DHT22;17711;54.018;9.300;2023-05-29T11:26:37;40.00;21.20
31046;DHT22;17711;54.018;9.300;2023-05-29T11:29:06;40.00;22.70
31046;DHT22;17711;54.018;9.300;2023-05-29T11:31:40;39.90;23.00
31046;DHT22;17711;54.018;9.300;2023-05-29T11:34:14;40.00;23.00
31046;DHT22;17711;54.018;9.300;2023-05-29T11:36:44;40.00;23.70
31046;DHT22;17711;54.018;9.300;2023-05-29T11:39:16;39.80;21.40
31046;DHT22;17711;54.018;9.300;2023-05-29T11:41:50;39.60;21.70
31046;DHT22;17711;54.018;9.300;2023-05-29T11:44:20;38.70;23.30
31046;DHT22;17711;54.018;9.300;2023-05-29T11:46:59;39.00;21.80
31046;DHT22;17711;54.018;9.300;2023-05-29T11:49:30;39.20;23.00
31046;DHT22;17711;54.018;9.300;2023-05-29T11:52:16;39.40;23.50
31046;DHT22;17711;54.018;9.300;2023-05-29T11:54:49;39.60;24.10
31046;DHT22;17711;54.018;9.300;2023-05-29T11:57:22;39.80;22.40
31046;DHT22;17711;54.018;9.300;2023-05-29T11:59:51;39.00;22.30
31046;DHT22;17711;54.018;9.300;2023-05-29T12:02:30;39.00;22.00
31046;DHT22;17711;54.018;9.300;2023-05-29T12:05:00;38.50;22.10
31046;DHT22;17711;54.018;9.300;2023-05-29T12:07:29;38.20;22.20
31046;DHT22;17711;54.018;9.300;2023-05-29T12:10:09;37.80;23.50
31046;DHT22;17711;54.018;9.300;2023-05-29T12:12:38;38.10;23.90
31046;DHT22;17711;54.018;9.300;2023-05-29T12:15:08;37.90;23.80
31046;DHT22;17711;54.018;9.300;2023-05-29T12:17:42;37.20;22.70
31046;DHT22;17711;54.018;9.300;2023-05-29T12:20:12;36.80;23.90
31046;DHT22;17711;54.018;9.300;2023-05-29T12:22:43;37.10;24.70
31046;DHT22;17711;54.018;9.300;2023-05-29T12:25:14;36.60;23.10
31046;DHT22;17711;54.018;9.300;2023-05-29T12:27:47;36.70;24.30
31046;DHT22;17711;54.018;9.300;2023-05-29T12:30:20;36.70;24.60
31046;DHT22;17711;54.018;9.300;2023-05-29T12:33:04;36.60;24.20
31046;DHT22;17711;54.018;9.300;2023-05-29T12:35:34;36.70;23.80
31046;DHT22;17711;54.018;9.300;2023-05-29T12:38:05;36.70;24.20
31046;DHT22;17711;54.018;9.300;2023-05-29T12:40:37;36.50;23.70
31046;DHT22;17711;54.018;9.300;2023-05-29T12:43:07;36.30;25.70
31046;DHT22;17711;54.018;9.300;2023-05-29T12:45:36;35.80;23.30
31046;DHT22;17711;54.018;9.300;2023-05-29T12:48:07;35.50;24.80
31046;DHT22;17711;54.018;9.300;2023-05-29T12:50:38;35.50;23.80
31046;DHT22;17711;54.018;9.300;2023-05-29T12:53:09;35.60;25.40
31046;DHT22;17711;54.018;9.300;2023-05-29T12:55:39;35.40;25.50
31046;DHT22;17711;54.018;9.300;2023-05-29T12:58:09;35.40;25.10
31046;DHT22;17711;54.018;9.300;2023-05-29T13:00:39;35.30;24.60
31046;DHT22;17711;54.018;9.300;2023-05-29T13:03:10;35.00;25.00
31046;DHT22;17711;54.018;9.300;2023-05-29T13:05:39;35.10;25.10
31046;DHT22;17711;54.018;9.300;2023-05-29T13:08:08;35.20;25.50
31046;DHT22;17711;54.018;9.300;2023-05-29T13:10:37;35.10;26.20
31046;DHT22;17711;54.018;9.300;2023-05-29T13:13:05;34.90;25.00
31046;DHT22;17711;54.018;9.300;2023-05-29T13:15:34;34.50;25.40
31046;DHT22;17711;54.018;9.300;2023-05-29T13:18:03;34.40;26.20
31046;DHT22;17711;54.018;9.300;2023-05-29T13:20:33;34.40;26.90
31046;DHT22;17711;54.018;9.300;2023-05-29T13:23:02;34.20;26.60
31046;DHT22;17711;54.018;9.300;2023-05-29T13:25:30;33.80;27.80
31046;DHT22;17711;54.018;9.300;2023-05-29T13:27:59;33.80;26.90
31046;DHT22;17711;54.018;9.300;2023-05-29T13:30:28;33.90;29.30
31046;DHT22;17711;54.018;9.300;2023-05-29T13:32:57;33.60;26.90
31046;DHT22;17711;54.018;9.300;2023-05-29T13:35:26;32.80;28.30
31046;DHT22;17711;54.018;9.300;2023-05-29T13:37:56;32.90;31.00
31046;DHT22;17711;54.018;9.300;2023-05-29T13:40:26;33.00;28.80
31046;DHT22;17711;54.018;9.300;2023-05-29T13:42:55;32.80;28.30
31046;DHT22;17711;54.018;9.300;2023-05-29T13:45:24;32.60;28.60
31046;DHT22;17711;54.018;9.300;2023-05-29T13:47:54;32.30;28.40
31046;DHT22;17711;54.018;9.300;2023-05-29T13:50:24;32.50;29.10
31046;DHT22;17711;54.018;9.300;2023-05-29T13:52:53;32.50;30.70
31046;DHT22;17711;54.018;9.300;2023-05-29T13:55:23;32.30;29.50
31046;DHT22;17711;54.018;9.300;2023-05-29T13:57:51;32.00;29.40
31046;DHT22;17711;54.018;9.300;2023-05-29T14:00:20;32.00;29.20
31046;DHT22;17711;54.018;9.300;2023-05-29T14:02:49;32.10;29.00
31046;DHT22;17711;54.018;9.300;2023-05-29T14:05:18;31.80;28.70
31046;DHT22;17711;54.018;9.300;2023-05-29T14:07:47;31.70;29.90
31046;DHT22;17711;54.018;9.300;2023-05-29T14:10:16;31.40;31.60
31046;DHT22;17711;54.018;9.300;2023-05-29T14:12:46;31.30;31.00
31046;DHT22;17711;54.018;9.300;2023-05-29T14:15:15;31.00;30.70
31046;DHT22;17711;54.018;9.300;2023-05-29T14:17:44;30.90;29.90
31046;DHT22;17711;54.018;9.300;2023-05-29T14:20:13;30.80;31.10
31046;DHT22;17711;54.018;9.300;2023-05-29T14:22:42;30.70;33.40
31046;DHT22;17711;54.018;9.300;2023-05-29T14:25:10;30.60;33.30
31046;DHT22;17711;54.018;9.300;2023-05-29T14:27:39;30.70;34.10
31046;DHT22;17711;54.018;9.300;2023-05-29T14:30:10;30.70;30.20
31046;DHT22;17711;54.018;9.300;2023-05-29T14:32:41;30.60;31.70
31046;DHT22;17711;54.018;9.300;2023-05-29T14:35:11;30.30;35.30
31046;DHT22;17711;54.018;9.300;2023-05-29T14:37:40;30.30;36.10
31046;DHT22;17711;54.018;9.300;2023-05-29T14:40:09;29.90;34.60
31046;DHT22;17711;54.018;9.300;2023-05-29T14:42:38;30.00;35.00
31046;DHT22;17711;54.018;9.300;2023-05-29T14:45:09;30.00;32.20
31046;DHT22;17711;54.018;9.300;2023-05-29T14:47:38;29.90;35.80
31046;DHT22;17711;54.018;9.300;2023-05-29T14:50:07;29.70;34.40
31046;DHT22;17711;54.018;9.300;2023-05-29T14:52:36;29.50;35.30
31046;DHT22;17711;54.018;9.300;2023-05-29T14:55:05;29.40;32.60
31046;DHT22;17711;54.018;9.300;2023-05-29T14:57:34;29.40;35.20
31046;DHT22;17711;54.018;9.300;2023-05-29T15:00:04;29.30;34.00
31046;DHT22;17711;54.018;9.300;2023-05-29T15:02:35;29.10;35.10
31046;DHT22;17711;54.018;9.300;2023-05-29T15:05:04;28.90;34.60
31046;DHT22;17711;54.018;9.300;2023-05-29T15:07:35;28.50;32.80
31046;DHT22;17711;54.018;9.300;2023-05-29T15:10:04;28.60;33.10
31046;DHT22;17711;54.018;9.300;2023-05-29T15:12:33;28.60;34.10
31046;DHT22;17711;54.018;9.300;2023-05-29T15:15:03;28.60;34.70
31046;DHT22;17711;54.018;9.300;2023-05-29T15:17:34;28.60;34.50
31046;DHT22;17711;54.018;9.300;2023-05-29T15:20:04;28.50;33.30
31046;DHT22;17711;54.018;9.300;2023-05-29T15:22:33;28.40;32.20
31046;DHT22;17711;54.018;9.300;2023-05-29T15:25:02;28.30;35.20
31046;DHT22;17711;54.018;9.300;2023-05-29T15:27:31;28.00;33.30
31046;DHT22;17711;54.018;9.300;2023-05-29T15:30:11;27.90;34.30
31046;DHT22;17711;54.018;9.300;2023-05-29T15:32:42;27.80;35.90
31046;DHT22;17711;54.018;9.300;2023-05-29T15:35:13;27.80;34.50
31046;DHT22;17711;54.018;9.300;2023-05-29T15:37:43;27.50;38.10
31046;DHT22;17711;54.018;9.300;2023-05-29T15:40:12;27.40;38.20
31046;DHT22;17711;54.018;9.300;2023-05-29T15:42:40;27.50;36.60
31046;DHT22;17711;54.018;9.300;2023-05-29T15:45:10;27.50;39.20
31046;DHT22;17711;54.018;9.300;2023-05-29T15:47:42;27.40;38.60
31046;DHT22;17711;54.018;9.300;2023-05-29T15:50:11;27.40;38.50
31046;DHT22;17711;54.018;9.300;2023-05-29T15:52:40;27.40;37.20